San Marcos Station Data

Red Flag Warning: No
Fire Weather Zone: 243
SDGE Region: North East
Lat/Lon: 33.129/-117.192

Observations

Time Wind Speed/Gust Temp(F) RH Fuel Moist Fuel Temp(F) Dewpt(F) Tmax(F) Tmin(F) Accum Precip 10-min Precip SL Press(mb)
4/29 11:50pm 101 2 G 3 60° 39% - - 34° 81° 50.1° - - -
4/29 11:40pm 123 2 G 4 59° 39% - - 34° 81° 50.1° - - -
4/29 11:30pm 137 1 G 3 59° 39% - - 34° 81° 50.1° - - -
4/29 11:20pm 132 1 G 4 60° 37% - - 34° 81° 50.1° - - -
4/29 11:10pm 124 2 G 4 61° 37% - - 35° 81° 50.1° - - -
4/29 11:00pm 283 2 G 4 61° 37% - - 35° 81° 50.1° - - -
4/29 10:50pm 117 1 G 4 62° 37% - - 35° 81° 50.1° - - -
4/29 10:40pm 95 3 G 6 62° 36% - - 34° 81° 50.1° - - -
4/29 10:30pm 42 1 G 6 62° 36% - - 35° 81° 50.1° - - -
4/29 10:20pm 75 2 G 3 63° 34% - - 34° 81° 50.1° - - -
4/29 10:10pm 88 3 G 5 63° 35% - - 35° 81° 50.1° - - -
4/29 10:00pm 85 1 G 3 62° 37% - - 36° 81° 50.1° - - -
4/29 9:50pm 78 2 G 3 64° 34% - - 35° 81° 50.1° - - -
4/29 9:40pm 107 3 G 4 65° 32% - - 34° 81° 50.1° - - -
4/29 9:30pm 98 1 G 4 65° 32% - - 35° 81° 50.1° - - -
4/29 9:20pm 164 3 G 4 66° 30% - - 34° 81° 50.1° - - -
4/29 9:10pm 169 3 G 4 66° 31% - - 34° 81° 50.1° - - -
4/29 9:00pm 162 2 G 3 66° 30% - - 34° 81° 50.1° - - -
4/29 8:50pm 216 2 G 4 67° 30% - - 34° 81° 50.1° - - -
4/29 8:40pm 248 2 G 5 67° 30% - - 34° 81° 50.1° - - -
4/29 8:30pm 226 2 G 5 67° 30% - - 34° 81° 50.1° - - -
4/29 8:20pm 223 1 G 3 67° 29% - - 34° 81° 50.1° - - -
4/29 8:10pm 226 2 G 5 67° 29% - - 33° 81° 50.1° - - -
4/29 8:00pm 261 3 G 10 67° 28% - - 33° 81° 50.1° - - -
4/29 7:50pm 257 3 G 9 68° 28% - - 33° 81° 50.1° - - -
4/29 7:40pm 258 4 G 10 68° 28% - - 33° 81° 50.1° - - -
4/29 7:30pm 261 4 G 9 69° 27% - - 34° 81° 50.1° - - -
4/29 7:20pm 276 4 G 8 69° 27% - - 34° 81° 50.1° - - -
4/29 7:10pm 273 5 G 10 69° 27% - - 34° 81° 50.1° - - -
4/29 7:00pm 266 4 G 9 70° 28% - - 36° 81° 50.1° - - -
4/29 6:50pm 278 5 G 10 70° 29% - - 36° 81° 50.1° - - -
4/29 6:40pm 279 6 G 11 71° 31% - - 39° 81° 50.1° - - -
4/29 6:30pm 288 8 G 13 72° 26% - - 36° 81° 50.1° - - -
4/29 6:20pm 285 7 G 12 73° 22% - - 33° 81° 50.1° - - -
4/29 6:10pm 255 5 G 10 74° 22% - - 33° 81° 50.1° - - -
4/29 6:00pm 252 4 G 9 74° 23% - - 33° 81° 50.1° - - -
4/29 5:50pm 256 5 G 10 74° 23% - - 34° 81° 50.1° - - -
4/29 5:40pm 261 5 G 11 75° 23% - - 35° 81° 50.1° - - -
4/29 5:30pm 256 6 G 11 75° 23% - - 34° 81° 50.1° - - -
4/29 5:20pm 262 6 G 12 75° 22% - - 33° 81° 50.1° - - -
4/29 5:10pm 251 6 G 13 75° 21% - - 32° 81° 50.1° - - -
4/29 5:00pm 248 6 G 12 76° 19% - - 30° 81° 50.1° - - -
4/29 4:50pm 263 6 G 14 75° 18% - - 29° 81° 50.1° - - -
4/29 4:40pm 273 8 G 14 75° 18% - - 29° 81° 50.1° - - -
4/29 4:30pm 274 8 G 15 76° 18% - - 29° 81° 50.1° - - -
4/29 4:20pm 275 7 G 12 76° 20% - - 32° 81° 50.1° - - -
4/29 4:10pm 254 5 G 11 76° 20% - - 32° 81° 50.1° - - -
4/29 4:00pm 268 5 G 9 77° 20% - - 33° 81° 50.1° - - -
4/29 3:50pm 263 7 G 14 76° 18% - - 30° 81° 50.1° - - -
4/29 3:40pm 267 8 G 16 77° 15% - - 26° 81° 50.1° - - -
4/29 3:30pm 250 6 G 13 78° 15% - - 26° 81° 50.1° - - -
4/29 3:20pm 236 6 G 12 77° 16% - - 28° 81° 50.1° - - -
4/29 3:10pm 261 7 G 14 78° 13% - - 23° 81° 50.1° - - -
4/29 3:00pm 244 5 G 11 78° 13% - - 23° 81° 50.1° - - -
4/29 2:50pm 258 6 G 12 77° 14% - - 25° 81° 50.1° - - -
4/29 2:40pm 248 6 G 11 76° 18% - - 29° 81° 50.1° - - -
4/29 2:30pm 243 6 G 13 76° 18% - - 30° 81° 50.1° - - -
4/29 2:20pm 237 6 G 13 76° 18% - - 30° 81° 50.1° - - -
4/29 2:10pm 227 7 G 13 76° 18% - - 29° 81° 50.1° - - -
4/29 2:00pm 243 7 G 18 76° 18% - - 30° 81° 50.1° - - -
4/29 1:50pm 232 6 G 15 76° 21% - - 34° 81° 50.1° - - -
4/29 1:40pm 207 9 G 16 77° 22% - - 36° 81° 50.1° - - -
4/29 1:30pm 257 7 G 12 78° 15% - - 27° 81° 50.1° - - -
4/29 1:20pm 260 7 G 14 78° 15% - - 26° 81° 50.1° - - -
4/29 1:10pm 273 6 G 13 79° 15% - - 28° 81° 50.1° - - -
4/29 1:00pm 275 8 G 14 79° 16% - - 29° 81° 50.1° - - -
4/29 12:50pm 268 8 G 15 78° 15% - - 27° 81° 50.1° - - -
4/29 12:40pm 259 6 G 11 78° 17% - - 30° 81° 50.1° - - -
4/29 12:30pm 251 6 G 11 78° 18% - - 30° 81° 50.1° - - -
4/29 12:20pm 220 7 G 14 78° 16% - - 29° 81° 50.1° - - -
4/29 12:10pm 300 6 G 15 80° 11% - - 20° 81° 50.1° - - -
4/29 12:00pm 321 3 G 8 80° 10% - - 18° 80.9° 50.1° - - -
4/29 11:50am 322 3 G 8 80° 10% - - 18° 80.9° 50.1° - - -
4/29 11:40am 295 3 G 6 80° 10% - - 18° 80.7° 50.1° - - -
4/29 11:30am 173 3 G 5 79° 11% - - 19° 80.1° 50.1° - - -
4/29 11:20am 93 3 G 6 78° 11% - - 20° 79.3° 50.1° - - -
4/29 11:10am 261 4 G 9 77° 10% - - 17° 78.8° 50.1° - - -
4/29 11:00am 313 2 G 7 78° 10% - - 17° 78.8° 50.1° - - -
4/29 10:50am 7 2 G 6 77° 10% - - 17° 78.1° 50.1° - - -
4/29 10:40am 338 3 G 6 77° 10% - - 16° 77.6° 50.1° - - -
4/29 10:30am 19 4 G 9 76° 11% - - 17° 76.8° 50.1° - - -
4/29 10:20am 4 2 G 5 76° 11% - - 18° 76.8° 50.1° - - -
4/29 10:10am 296 2 G 6 75° 11% - - 17° 76.1° 50.1° - - -
4/29 10:00am 315 2 G 6 75° 11% - - 16° 76.1° 50.1° - - -
4/29 9:50am 290 1 G 4 75° 11% - - 18° 76.1° 50.1° - - -
4/29 9:40am 199 1 G 4 75° 12% - - 19° 75.5° 50.1° - - -
4/29 9:30am 95 1 G 3 73° 15% - - 23° 75° 50.1° - - -
4/29 9:20am 38 2 G 4 72° 14% - - 21° 73° 50.1° - - -
4/29 9:10am 94 2 G 4 72° 15% - - 22° 72.9° 50.1° - - -
4/29 9:00am 98 3 G 5 72° 16% - - 22° 72.9° 50.1° - - -
4/29 8:50am 359 1 G 2 71° 15% - - 21° 72.2° 50.1° - - -
4/29 8:40am 30 2 G 5 70° 16% - - 22° 70.7° 50.1° - - -
4/29 8:30am 71 2 G 4 69° 18% - - 24° 70.2° 50.1° - - -
4/29 8:20am 64 2 G 5 68° 18% - - 24° 69.4° 50.1° - - -
4/29 8:10am 76 4 G 7 67° 19% - - 24° 67.7° 50.1° - - -
4/29 8:00am 79 4 G 6 67° 19% - - 23° 67.6° 50.1° - - -
4/29 7:50am 72 3 G 6 67° 19% - - 23° 67.6° 50.1° - - -
4/29 7:40am 128 4 G 7 66° 19% - - 23° 67.1° 50.1° - - -
4/29 7:30am 152 2 G 5 65° 21% - - 25° 66.2° 50.1° - - -
4/29 7:20am 109 3 G 6 63° 26% - - 27° 64.2° 50.1° - - -
4/29 7:10am 67 2 G 4 61° 30% - - 29° 62.1° 50.1° - - -
4/29 7:00am 117 2 G 4 59° 33% - - 31° 60.4° 50.1° - - -
4/29 6:50am 92 3 G 6 59° 32% - - 29° 60.3° 50.1° - - -
4/29 6:40am 64 3 G 9 56° 39% - - 31° 60.3° 50.1° - - -
4/29 6:30am 128 1 G 3 51° 58% - - 37° 58.1° 50.1° - - -
4/29 6:20am 176 1 G 2 51° 60% - - 37° 58.1° 50.1° - - -
4/29 6:10am 127 1 G 3 52° 56% - - 36° 58.1° 50.9° - - -
4/29 6:00am 94 1 G 3 53° 52% - - 36° 58.1° 51° - - -
4/29 5:50am 74 3 G 6 52° 56% - - 37° 58.1° 51° - - -
4/29 5:40am 91 2 G 4 53° 54% - - 37° 58.1° 51° - - -
4/29 5:30am 89 2 G 4 52° 57% - - 37° 58.1° 51° - - -
4/29 5:20am 75 1 G 3 52° 57% - - 37° 58.1° 51° - - -
4/29 5:10am 104 3 G 5 52° 61% - - 39° 58.1° 51° - - -
4/29 5:00am 67 1 G 2 51° 64% - - 40° 58.1° 51° - - -
4/29 4:50am 57 1 G 4 52° 62% - - 40° 58.1° 51.3° - - -
4/29 4:40am 65 1 G 3 52° 65% - - 40° 58.1° 51.3° - - -
4/29 4:30am 347 1 G 2 52° 67% - - 41° 58.1° 51.3° - - -
4/29 4:20am 68 1 G 2 52° 68% - - 42° 58.1° 51.5° - - -
4/29 4:10am 67 1 G 2 52° 71% - - 43° 58.1° 51.5° - - -
4/29 4:00am 88 1 G 2 53° 70% - - 43° 58.1° 52° - - -
4/29 3:50am 27 1 G 2 53° 70% - - 43° 58.1° 52° - - -
4/29 3:40am 65 0 G 2 53° 71% - - 44° 58.1° 52.4° - - -
4/29 3:30am 51 1 G 2 53° 70% - - 44° 58.1° 52.6° - - -
4/29 3:20am 28 1 G 4 54° 68% - - 44° 58.1° 52.9° - - -
4/29 3:10am 112 1 G 4 55° 67% - - 44° 58.1° 53° - - -
4/29 3:00am 125 2 G 5 55° 67% - - 44° 58.1° 53° - - -
4/29 2:50am 91 2 G 4 54° 71% - - 45° 58.1° 53° - - -
4/29 2:40am 15 1 G 2 54° 71% - - 45° 58.1° 53.1° - - -
4/29 2:30am 50 2 G 3 55° 67% - - 45° 58.1° 53.6° - - -
4/29 2:20am 72 2 G 4 56° 66% - - 45° 58.1° 53.6° - - -
4/29 2:10am 119 2 G 4 55° 67% - - 45° 58.1° 53.6° - - -
4/29 2:00am 79 2 G 4 54° 70% - - 45° 58.1° 53.6° - - -
4/29 1:50am 103 1 G 2 55° 71% - - 45° 58.1° 54.1° - - -
4/29 1:40am 39 1 G 3 55° 70% - - 45° 58.1° 54.1° - - -
4/29 1:30am 42 2 G 3 56° 68% - - 46° 58.1° 54.5° - - -
4/29 1:20am 136 2 G 3 57° 68% - - 46° 58.1° 55.1° - - -
4/29 1:10am 125 2 G 4 56° 71% - - 47° 58.1° 55.1° - - -
4/29 1:00am 144 1 G 2 56° 71% - - 47° 58.1° 55.1° - - -
4/29 12:50am 99 1 G 2 56° 72% - - 47° 58.1° 55.1° - - -
4/29 12:40am 78 1 G 2 57° 69% - - 47° 58.1° 55.8° - - -
4/29 12:30am 114 2 G 3 57° 68% - - 47° 58.1° 56.6° - - -
4/29 12:20am 144 1 G 2 57° 69% - - 47° 58.1° 56.7° - - -
4/29 12:10am 159 1 G 2 57° 69% - - 47° 58.1° 56.9° - - -
4/29 12:00am 202 1 G 2 57° 71% - - 47° 73.7° 53.3° - - -
4/28 11:50pm 284 1 G 2 57° 68% - - 47° 73.7° 53.3° - - -
4/28 11:40pm 123 2 G 4 59° 66% - - 47° 73.7° 53.3° - - -
4/28 11:30pm 107 3 G 4 58° 66% - - 47° 73.7° 53.3° - - -
4/28 11:20pm 154 3 G 5 58° 68% - - 47° 73.7° 53.3° - - -
4/28 11:10pm 183 0 G 2 58° 68% - - 47° 73.7° 53.3° - - -
4/28 11:00pm 252 0 G 1 58° 67% - - 47° 73.7° 53.3° - - -
4/28 10:50pm 68 2 G 3 59° 65% - - 47° 73.7° 53.3° - - -
4/28 10:40pm 113 2 G 3 59° 65% - - 47° 73.7° 53.3° - - -
4/28 10:30pm 118 2 G 4 59° 66% - - 48° 73.7° 53.3° - - -
4/28 10:20pm 102 1 G 2 60° 66% - - 48° 73.7° 53.3° - - -
4/28 10:10pm 109 1 G 2 60° 65% - - 48° 73.7° 53.3° - - -
4/28 10:00pm 215 1 G 2 60° 65% - - 49° 73.7° 53.3° - - -
4/28 9:50pm 110 1 G 2 61° 64% - - 49° 73.7° 53.3° - - -
4/28 9:40pm 116 1 G 2 61° 64% - - 49° 73.7° 53.3° - - -
4/28 9:30pm 135 2 G 4 61° 63% - - 49° 73.7° 53.3° - - -
4/28 9:20pm 152 1 G 3 62° 63% - - 49° 73.7° 53.3° - - -
4/28 9:10pm 116 3 G 4 62° 62% - - 49° 73.7° 53.3° - - -
4/28 9:00pm 110 3 G 5 62° 62% - - 49° 73.7° 53.3° - - -
4/28 8:50pm 103 2 G 4 63° 61% - - 49° 73.7° 53.3° - - -
4/28 8:40pm 71 1 G 2 63° 61% - - 49° 73.7° 53.3° - - -
4/28 8:30pm 335 1 G 2 63° 60% - - 49° 73.7° 53.3° - - -
4/28 8:20pm 349 1 G 3 63° 59% - - 49° 73.7° 53.3° - - -
4/28 8:10pm 130 2 G 4 64° 58% - - 49° 73.7° 53.3° - - -
4/28 8:00pm 233 2 G 6 64° 58% - - 49° 73.7° 53.3° - - -
4/28 7:50pm 238 3 G 6 64° 57% - - 49° 73.7° 53.3° - - -
4/28 7:40pm 221 3 G 7 65° 55% - - 48° 73.7° 53.3° - - -
4/28 7:30pm 224 3 G 6 65° 54% - - 48° 73.7° 53.3° - - -
4/28 7:20pm 240 3 G 8 65° 53% - - 48° 73.7° 53.3° - - -
4/28 7:10pm 242 3 G 8 66° 53% - - 48° 73.7° 53.3° - - -
4/28 7:00pm 237 2 G 7 66° 51% - - 47° 73.7° 53.3° - - -
4/28 6:50pm 247 4 G 9 66° 51% - - 48° 73.7° 53.3° - - -
4/28 6:40pm 258 5 G 9 67° 49% - - 47° 73.7° 53.3° - - -
4/28 6:30pm 269 6 G 10 67° 48% - - 47° 73.7° 53.3° - - -
4/28 6:20pm 269 7 G 13 67° 47% - - 46° 73.7° 53.3° - - -
4/28 6:10pm 273 6 G 13 68° 45% - - 46° 73.7° 53.3° - - -
4/28 6:00pm 276 6 G 13 68° 44% - - 45° 73.7° 53.3° - - -